sensor_id;sensor_type;location;lat;lon;timestamp;pressure;altitude;pressure_sealevel;temperature;humidity
71857;BME280;63344;46.980;28.882;2023-03-01T00:01:41;102017.81;;;-1.68;89.46
71857;BME280;63344;46.980;28.882;2023-03-01T00:04:08;102015.09;;;-1.71;89.36
71857;BME280;63344;46.980;28.882;2023-03-01T00:06:37;102011.59;;;-1.71;89.54
71857;BME280;63344;46.980;28.882;2023-03-01T00:09:05;102020.34;;;-1.69;89.44
71857;BME280;63344;46.980;28.882;2023-03-01T00:11:33;102019.41;;;-1.71;89.46
71857;BME280;63344;46.980;28.882;2023-03-01T00:14:01;102011.63;;;-1.70;89.51
71857;BME280;63344;46.980;28.882;2023-03-01T00:16:32;102007.28;;;-1.71;89.39
71857;BME280;63344;46.980;28.882;2023-03-01T00:19:02;102011.53;;;-1.73;89.23
71857;BME280;63344;46.980;28.882;2023-03-01T00:21:30;102002.00;;;-1.72;89.10
71857;BME280;63344;46.980;28.882;2023-03-01T00:23:58;101996.66;;;-1.77;89.15
71857;BME280;63344;46.980;28.882;2023-03-01T00:26:25;101994.78;;;-1.81;89.03
71857;BME280;63344;46.980;28.882;2023-03-01T00:28:54;102004.47;;;-1.77;89.21
71857;BME280;63344;46.980;28.882;2023-03-01T00:31:27;102008.72;;;-1.79;89.44
71857;BME280;63344;46.980;28.882;2023-03-01T00:33:58;101997.31;;;-1.83;89.42
71857;BME280;63344;46.980;28.882;2023-03-01T00:36:30;101998.19;;;-1.82;89.12
71857;BME280;63344;46.980;28.882;2023-03-01T00:38:58;101993.00;;;-1.82;89.58
71857;BME280;63344;46.980;28.882;2023-03-01T00:41:26;101985.28;;;-1.79;89.52
71857;BME280;63344;46.980;28.882;2023-03-01T00:43:54;101985.34;;;-1.77;89.68
71857;BME280;63344;46.980;28.882;2023-03-01T00:46:26;101981.81;;;-1.79;89.60
71857;BME280;63344;46.980;28.882;2023-03-01T00:48:53;101974.75;;;-1.84;89.68
71857;BME280;63344;46.980;28.882;2023-03-01T00:51:23;101975.56;;;-1.85;89.95
71857;BME280;63344;46.980;28.882;2023-03-01T00:53:53;101972.06;;;-1.85;89.81
71857;BME280;63344;46.980;28.882;2023-03-01T00:56:20;101964.94;;;-1.91;89.75
71857;BME280;63344;46.980;28.882;2023-03-01T00:58:48;101968.41;;;-1.90;89.59
71857;BME280;63344;46.980;28.882;2023-03-01T01:01:19;101968.53;;;-1.87;89.95
71857;BME280;63344;46.980;28.882;2023-03-01T01:06:36;101954.31;;;-1.97;90.14
71857;BME280;63344;46.980;28.882;2023-03-01T01:09:06;101950.72;;;-2.01;89.98
71857;BME280;63344;46.980;28.882;2023-03-01T01:11:33;101943.75;;;-2.02;89.69
71857;BME280;63344;46.980;28.882;2023-03-01T01:14:03;101941.81;;;-2.07;89.33
71857;BME280;63344;46.980;28.882;2023-03-01T01:16:30;101929.28;;;-2.19;89.49
71857;BME280;63344;46.980;28.882;2023-03-01T01:18:59;101920.31;;;-2.27;89.83
71857;BME280;63344;46.980;28.882;2023-03-01T01:21:26;101929.81;;;-2.28;90.84
71857;BME280;63344;46.980;28.882;2023-03-01T01:23:55;101919.38;;;-2.29;91.24
71857;BME280;63344;46.980;28.882;2023-03-01T01:26:25;101912.31;;;-2.33;91.19
71857;BME280;63344;46.980;28.882;2023-03-01T01:28:52;101919.25;;;-2.32;91.17
71857;BME280;63344;46.980;28.882;2023-03-01T01:31:20;101918.38;;;-2.33;91.34
71857;BME280;63344;46.980;28.882;2023-03-01T01:33:52;101923.53;;;-2.34;91.10
71857;BME280;63344;46.980;28.882;2023-03-01T01:36:20;101914.91;;;-2.33;91.27
71857;BME280;63344;46.980;28.882;2023-03-01T01:38:47;101920.19;;;-2.30;91.10
71857;BME280;63344;46.980;28.882;2023-03-01T01:41:15;101922.94;;;-2.27;91.03
71857;BME280;63344;46.980;28.882;2023-03-01T01:43:48;101925.56;;;-2.26;91.04
71857;BME280;63344;46.980;28.882;2023-03-01T01:49:12;101912.59;;;-2.24;91.40
71857;BME280;63344;46.980;28.882;2023-03-01T01:51:45;101906.25;;;-2.32;91.00
71857;BME280;63344;46.980;28.882;2023-03-01T01:54:26;101924.88;;;-2.22;91.39
71857;BME280;63344;46.980;28.882;2023-03-01T01:56:59;101910.94;;;-2.22;91.36
71857;BME280;63344;46.980;28.882;2023-03-01T01:59:30;101909.13;;;-2.25;91.05
71857;BME280;63344;46.980;28.882;2023-03-01T02:02:00;101905.59;;;-2.27;91.08
71857;BME280;63344;46.980;28.882;2023-03-01T02:04:31;101903.72;;;-2.31;91.00
71857;BME280;63344;46.980;28.882;2023-03-01T02:07:03;101896.72;;;-2.32;90.88
71857;BME280;63344;46.980;28.882;2023-03-01T02:09:34;101886.16;;;-2.36;91.15
71857;BME280;63344;46.980;28.882;2023-03-01T02:12:03;101889.78;;;-2.33;91.00
71857;BME280;63344;46.980;28.882;2023-03-01T02:14:31;101886.16;;;-2.36;90.95
71857;BME280;63344;46.980;28.882;2023-03-01T02:16:59;101890.56;;;-2.35;91.19
71857;BME280;63344;46.980;28.882;2023-03-01T02:19:39;101894.84;;;-2.36;91.03
71857;BME280;63344;46.980;28.882;2023-03-01T02:22:42;101891.38;;;-2.36;91.20
71857;BME280;63344;46.980;28.882;2023-03-01T02:30:25;101879.94;;;-2.42;91.26
71857;BME280;63344;46.980;28.882;2023-03-01T02:32:55;101880.88;;;-2.39;91.15
71857;BME280;63344;46.980;28.882;2023-03-01T02:35:33;101879.16;;;-2.39;91.24
71857;BME280;63344;46.980;28.882;2023-03-01T02:38:07;101883.47;;;-2.39;90.83
71857;BME280;63344;46.980;28.882;2023-03-01T02:40:37;101886.84;;;-2.42;90.58
71857;BME280;63344;46.980;28.882;2023-03-01T02:43:08;101872.75;;;-2.49;90.49
71857;BME280;63344;46.980;28.882;2023-03-01T02:45:37;101869.09;;;-2.54;90.41
71857;BME280;63344;46.980;28.882;2023-03-01T02:48:11;101862.00;;;-2.58;90.64
71857;BME280;63344;46.980;28.882;2023-03-01T02:51:04;101853.25;;;-2.62;91.04
71857;BME280;63344;46.980;28.882;2023-03-01T02:56:27;101853.47;;;-2.55;91.58
71857;BME280;63344;46.980;28.882;2023-03-01T02:58:56;101857.81;;;-2.54;91.36
71857;BME280;63344;46.980;28.882;2023-03-01T03:01:37;101843.72;;;-2.61;90.98
71857;BME280;63344;46.980;28.882;2023-03-01T03:04:16;101847.19;;;-2.61;91.34
71857;BME280;63344;46.980;28.882;2023-03-01T03:06:48;101839.97;;;-2.69;90.88
71857;BME280;63344;46.980;28.882;2023-03-01T03:09:18;101844.44;;;-2.65;91.67
71857;BME280;63344;46.980;28.882;2023-03-01T03:11:46;101844.44;;;-2.65;92.02
71857;BME280;63344;46.980;28.882;2023-03-01T03:14:16;101846.31;;;-2.61;92.31
71857;BME280;63344;46.980;28.882;2023-03-01T03:17:12;101843.72;;;-2.61;92.52
71857;BME280;63344;46.980;28.882;2023-03-01T03:19:39;101841.88;;;-2.64;92.23
71857;BME280;63344;46.980;28.882;2023-03-01T03:22:09;101848.97;;;-2.59;92.17
71857;BME280;63344;46.980;28.882;2023-03-01T03:24:39;101844.44;;;-2.65;92.32
71857;BME280;63344;46.980;28.882;2023-03-01T03:27:09;101850.41;;;-2.68;91.86
71857;BME280;63344;46.980;28.882;2023-03-01T03:29:38;101844.19;;;-2.73;91.63
71857;BME280;63344;46.980;28.882;2023-03-01T03:32:05;101850.25;;;-2.72;92.03
71857;BME280;63344;46.980;28.882;2023-03-01T03:34:33;101844.13;;;-2.74;92.57
71857;BME280;63344;46.980;28.882;2023-03-01T03:37:01;101865.03;;;-2.71;93.18
71857;BME280;63344;46.980;28.882;2023-03-01T03:39:30;101852.91;;;-2.71;93.99
71857;BME280;63344;46.980;28.882;2023-03-01T03:42:01;101856.59;;;-2.64;94.25
71857;BME280;63344;46.980;28.882;2023-03-01T03:44:29;101852.34;;;-2.62;95.00
71857;BME280;63344;46.980;28.882;2023-03-01T03:46:59;101853.41;;;-2.57;95.19
71857;BME280;63344;46.980;28.882;2023-03-01T03:49:35;101843.81;;;-2.58;95.57
71857;BME280;63344;46.980;28.882;2023-03-01T03:52:03;101838.59;;;-2.58;95.54
71857;BME280;63344;46.980;28.882;2023-03-01T03:54:47;101844.94;;;-2.51;95.63
71857;BME280;63344;46.980;28.882;2023-03-01T03:57:15;101834.97;;;-2.63;95.53
71857;BME280;63344;46.980;28.882;2023-03-01T03:59:44;101834.97;;;-2.63;95.41
71857;BME280;63344;46.980;28.882;2023-03-01T04:02:11;101830.53;;;-2.66;95.32
71857;BME280;63344;46.980;28.882;2023-03-01T04:04:39;101846.47;;;-2.56;95.51
71857;BME280;63344;46.980;28.882;2023-03-01T04:07:31;101837.78;;;-2.57;95.25
71857;BME280;63344;46.980;28.882;2023-03-01T04:10:06;101836.19;;;-2.53;95.58
71857;BME280;63344;46.980;28.882;2023-03-01T04:12:36;101839.03;;;-2.46;95.62
71857;BME280;63344;46.980;28.882;2023-03-01T04:15:06;101837.41;;;-2.42;95.44
71857;BME280;63344;46.980;28.882;2023-03-01T04:17:41;101828.81;;;-2.41;95.40
71857;BME280;63344;46.980;28.882;2023-03-01T04:20:17;101834.06;;;-2.39;95.21
71857;BME280;63344;46.980;28.882;2023-03-01T04:22:45;101830.47;;;-2.43;94.68
71857;BME280;63344;46.980;28.882;2023-03-01T04:25:16;101819.75;;;-2.52;94.38
71857;BME280;63344;46.980;28.882;2023-03-01T04:27:44;101833.69;;;-2.50;94.38
71857;BME280;63344;46.980;28.882;2023-03-01T04:30:12;101834.47;;;-2.53;93.73
71857;BME280;63344;46.980;28.882;2023-03-01T04:32:40;101837.66;;;-2.62;93.83
71857;BME280;63344;46.980;28.882;2023-03-01T04:35:10;101839.25;;;-2.65;93.49
71857;BME280;63344;46.980;28.882;2023-03-01T04:37:38;101848.97;;;-2.59;93.34
71857;BME280;63344;46.980;28.882;2023-03-01T04:40:07;101833.38;;;-2.59;93.36
71857;BME280;63344;46.980;28.882;2023-03-01T04:42:43;101838.78;;;-2.53;93.74
71857;BME280;63344;46.980;28.882;2023-03-01T04:45:10;101842.75;;;-2.39;93.43
71857;BME280;63344;46.980;28.882;2023-03-01T04:47:42;101849.88;;;-2.33;93.57
71857;BME280;63344;46.980;28.882;2023-03-01T04:50:16;101849.88;;;-2.33;93.21
71857;BME280;63344;46.980;28.882;2023-03-01T04:52:43;101848.94;;;-2.35;93.05
71857;BME280;63344;46.980;28.882;2023-03-01T04:55:11;101846.53;;;-2.29;92.72
71857;BME280;63344;46.980;28.882;2023-03-01T04:57:39;101843.34;;;-2.21;92.78
71857;BME280;63344;46.980;28.882;2023-03-01T05:00:10;101842.72;;;-2.13;92.86
71857;BME280;63344;46.980;28.882;2023-03-01T05:02:51;101843.00;;;-2.04;92.45
71857;BME280;63344;46.980;28.882;2023-03-01T05:05:43;101849.47;;;-1.93;92.33
71857;BME280;63344;46.980;28.882;2023-03-01T05:08:11;101848.84;;;-1.84;92.25
71857;BME280;63344;46.980;28.882;2023-03-01T05:10:52;101850.91;;;-1.74;91.94
71857;BME280;63344;46.980;28.882;2023-03-01T05:13:20;101852.09;;;-1.64;91.50
71857;BME280;63344;46.980;28.882;2023-03-01T05:15:58;101848.84;;;-1.57;91.28
71857;BME280;63344;46.980;28.882;2023-03-01T05:18:32;101852.69;;;-1.46;90.65
71857;BME280;63344;46.980;28.882;2023-03-01T05:21:25;101854.72;;;-1.35;89.65
71857;BME280;63344;46.980;28.882;2023-03-01T05:23:53;101854.88;;;-1.29;89.74
71857;BME280;63344;46.980;28.882;2023-03-01T05:26:23;101847.31;;;-1.22;89.39
71857;BME280;63344;46.980;28.882;2023-03-01T05:28:55;101850.97;;;-1.15;88.67
71857;BME280;63344;46.980;28.882;2023-03-01T05:31:23;101858.16;;;-1.06;88.25
71857;BME280;63344;46.980;28.882;2023-03-01T05:33:51;101855.81;;;-0.97;87.35
71857;BME280;63344;46.980;28.882;2023-03-01T05:36:20;101854.25;;;-0.92;86.54
71857;BME280;63344;46.980;28.882;2023-03-01T05:38:48;101860.56;;;-0.82;86.54
71857;BME280;63344;46.980;28.882;2023-03-01T05:41:17;101851.03;;;-0.82;86.41
71857;BME280;63344;46.980;28.882;2023-03-01T05:43:46;101848.50;;;-0.78;86.07
71857;BME280;63344;46.980;28.882;2023-03-01T05:46:14;101853.09;;;-0.70;85.51
71857;BME280;63344;46.980;28.882;2023-03-01T05:48:43;101856.09;;;-0.56;84.86
71857;BME280;63344;46.980;28.882;2023-03-01T05:51:10;101860.63;;;-0.49;83.60
71857;BME280;63344;46.980;28.882;2023-03-01T05:53:40;101845.81;;;-0.48;83.08
71857;BME280;63344;46.980;28.882;2023-03-01T05:56:13;101850.44;;;-0.39;82.94
71857;BME280;63344;46.980;28.882;2023-03-01T05:58:40;101840.81;;;-0.41;82.67
71857;BME280;63344;46.980;28.882;2023-03-01T06:01:11;101848.13;;;-0.27;81.98
71857;BME280;63344;46.980;28.882;2023-03-01T06:03:39;101846.53;;;-0.21;81.73
71857;BME280;63344;46.980;28.882;2023-03-01T06:06:07;101845.78;;;-0.16;80.93
71857;BME280;63344;46.980;28.882;2023-03-01T06:08:40;101839.00;;;-0.08;80.13
71857;BME280;63344;46.980;28.882;2023-03-01T06:11:22;101843.41;;;-0.07;79.83
71857;BME280;63344;46.980;28.882;2023-03-01T06:13:49;101850.50;;;-0.02;79.61
71857;BME280;63344;46.980;28.882;2023-03-01T06:16:17;101846.31;;;0.05;79.57
71857;BME280;63344;46.980;28.882;2023-03-01T06:18:44;101848.16;;;0.09;78.99
71857;BME280;63344;46.980;28.882;2023-03-01T06:21:11;101849.09;;;0.13;78.60
71857;BME280;63344;46.980;28.882;2023-03-01T06:23:38;101851.84;;;0.19;78.99
71857;BME280;63344;46.980;28.882;2023-03-01T06:26:07;101840.69;;;0.25;78.58
71857;BME280;63344;46.980;28.882;2023-03-01T06:28:35;101854.03;;;0.37;77.72
71857;BME280;63344;46.980;28.882;2023-03-01T06:31:03;101848.88;;;0.42;77.29
71857;BME280;63344;46.980;28.882;2023-03-01T06:33:30;101848.19;;;0.49;77.18
71857;BME280;63344;46.980;28.882;2023-03-01T06:35:57;101844.63;;;0.45;76.95
71857;BME280;63344;46.980;28.882;2023-03-01T06:38:25;101833.47;;;0.54;76.93
71857;BME280;63344;46.980;28.882;2023-03-01T06:40:54;101835.44;;;0.63;76.12
71857;BME280;63344;46.980;28.882;2023-03-01T06:43:23;101819.66;;;0.59;76.29
71857;BME280;63344;46.980;28.882;2023-03-01T06:45:51;101825.00;;;0.64;76.29
71857;BME280;63344;46.980;28.882;2023-03-01T06:48:20;101829.50;;;0.71;75.76
71857;BME280;63344;46.980;28.882;2023-03-01T06:50:48;101826.09;;;0.75;75.49
71857;BME280;63344;46.980;28.882;2023-03-01T06:53:15;101823.59;;;0.80;75.59
71857;BME280;63344;46.980;28.882;2023-03-01T06:55:44;101821.06;;;0.85;75.14
71857;BME280;63344;46.980;28.882;2023-03-01T06:58:11;101814.97;;;0.86;75.25
71857;BME280;63344;46.980;28.882;2023-03-01T07:00:39;101818.66;;;0.95;75.04
71857;BME280;63344;46.980;28.882;2023-03-01T07:03:08;101812.69;;;1.01;74.36
71857;BME280;63344;46.980;28.882;2023-03-01T07:05:36;101813.75;;;1.11;74.04
71857;BME280;63344;46.980;28.882;2023-03-01T07:08:04;101816.41;;;1.12;73.79
71857;BME280;63344;46.980;28.882;2023-03-01T07:10:31;101822.63;;;1.19;73.09
71857;BME280;63344;46.980;28.882;2023-03-01T07:12:58;101805.06;;;1.13;72.91
71857;BME280;63344;46.980;28.882;2023-03-01T07:15:28;101806.88;;;1.17;73.22
71857;BME280;63344;46.980;28.882;2023-03-01T07:17:56;101804.38;;;1.24;73.83
71857;BME280;63344;46.980;28.882;2023-03-01T07:20:23;101808.91;;;1.32;73.89
71857;BME280;63344;46.980;28.882;2023-03-01T07:22:53;101818.81;;;1.49;73.32
71857;BME280;63344;46.980;28.882;2023-03-01T07:25:20;101812.81;;;1.54;73.11
71857;BME280;63344;46.980;28.882;2023-03-01T07:27:52;101808.63;;;1.66;72.78
71857;BME280;63344;46.980;28.882;2023-03-01T07:30:47;101810.47;;;1.71;72.06
71857;BME280;63344;46.980;28.882;2023-03-01T07:33:17;101805.22;;;1.70;71.93
71857;BME280;63344;46.980;28.882;2023-03-01T07:35:44;101805.31;;;1.76;71.26
71857;BME280;63344;46.980;28.882;2023-03-01T07:38:11;101810.69;;;1.85;70.90
71857;BME280;63344;46.980;28.882;2023-03-01T07:40:39;101806.38;;;1.89;70.89
71857;BME280;63344;46.980;28.882;2023-03-01T07:43:06;101797.72;;;1.93;70.43
71857;BME280;63344;46.980;28.882;2023-03-01T07:45:33;101809.03;;;1.90;70.55
71857;BME280;63344;46.980;28.882;2023-03-01T07:48:03;101804.78;;;1.97;71.10
71857;BME280;63344;46.980;28.882;2023-03-01T07:50:40;101804.91;;;2.06;70.51
71857;BME280;63344;46.980;28.882;2023-03-01T07:53:20;101806.75;;;2.12;70.53
71857;BME280;63344;46.980;28.882;2023-03-01T07:55:47;101799.81;;;2.14;70.56
71857;BME280;63344;46.980;28.882;2023-03-01T07:58:14;101810.44;;;2.25;70.10
71857;BME280;63344;46.980;28.882;2023-03-01T08:00:41;101789.38;;;2.18;69.65
71857;BME280;63344;46.980;28.882;2023-03-01T08:03:10;101799.13;;;2.29;69.48
71857;BME280;63344;46.980;28.882;2023-03-01T08:05:37;101785.25;;;2.37;69.00
71857;BME280;63344;46.980;28.882;2023-03-01T08:08:05;101782.75;;;2.45;69.25
71857;BME280;63344;46.980;28.882;2023-03-01T08:10:32;101773.16;;;2.47;68.87
71857;BME280;63344;46.980;28.882;2023-03-01T08:12:59;101776.78;;;2.57;68.73
71857;BME280;63344;46.980;28.882;2023-03-01T08:15:26;101780.38;;;2.65;68.09
71857;BME280;63344;46.980;28.882;2023-03-01T08:17:54;101777.84;;;2.73;67.92
71857;BME280;63344;46.980;28.882;2023-03-01T08:20:21;101770.88;;;2.75;66.76
71857;BME280;63344;46.980;28.882;2023-03-01T08:22:52;101771.03;;;2.87;67.74
71857;BME280;63344;46.980;28.882;2023-03-01T08:25:19;101760.66;;;2.96;66.75
71857;BME280;63344;46.980;28.882;2023-03-01T08:27:46;101768.56;;;3.01;66.27
71857;BME280;63344;46.980;28.882;2023-03-01T08:30:13;101756.38;;;3.06;65.75
71857;BME280;63344;46.980;28.882;2023-03-01T08:32:41;101756.38;;;3.06;65.81
71857;BME280;63344;46.980;28.882;2023-03-01T08:35:08;101747.59;;;3.04;65.82
71857;BME280;63344;46.980;28.882;2023-03-01T08:37:36;101731.06;;;3.10;64.76
71857;BME280;63344;46.980;28.882;2023-03-01T08:40:03;101754.66;;;3.11;65.26
71857;BME280;63344;46.980;28.882;2023-03-01T08:42:38;101746.00;;;3.18;65.00
71857;BME280;63344;46.980;28.882;2023-03-01T08:45:06;101747.84;;;3.29;65.60
71857;BME280;63344;46.980;28.882;2023-03-01T08:47:36;101724.25;;;3.33;65.40
71857;BME280;63344;46.980;28.882;2023-03-01T08:50:04;101737.44;;;3.41;64.93
71857;BME280;63344;46.980;28.882;2023-03-01T08:52:59;101730.50;;;3.49;64.50
71857;BME280;63344;46.980;28.882;2023-03-01T08:55:27;101729.63;;;3.47;64.22
71857;BME280;63344;46.980;28.882;2023-03-01T08:57:57;101713.09;;;3.57;64.85
71857;BME280;63344;46.980;28.882;2023-03-01T09:00:41;101721.63;;;4.93;63.71
71857;BME280;63344;46.980;28.882;2023-03-01T09:03:17;101722.88;;;7.22;58.81
71857;BME280;63344;46.980;28.882;2023-03-01T09:05:49;101715.84;;;8.88;53.95
71857;BME280;63344;46.980;28.882;2023-03-01T09:08:46;101712.03;;;9.65;49.69
71857;BME280;63344;46.980;28.882;2023-03-01T09:11:17;101708.66;;;10.90;47.55
71857;BME280;63344;46.980;28.882;2023-03-01T09:13:46;101712.44;;;11.89;46.34
71857;BME280;63344;46.980;28.882;2023-03-01T09:16:19;101695.84;;;12.73;44.00
71857;BME280;63344;46.980;28.882;2023-03-01T09:18:50;101705.63;;;13.84;42.33
71857;BME280;63344;46.980;28.882;2023-03-01T09:21:19;101699.53;;;14.29;38.19
71857;BME280;63344;46.980;28.882;2023-03-01T09:24:04;101717.44;;;13.50;38.31
71857;BME280;63344;46.980;28.882;2023-03-01T09:26:32;101727.78;;;13.60;38.34
71857;BME280;63344;46.980;28.882;2023-03-01T09:29:00;101703.63;;;13.89;38.09
71857;BME280;63344;46.980;28.882;2023-03-01T09:31:27;101702.91;;;14.82;37.15
71857;BME280;63344;46.980;28.882;2023-03-01T09:33:54;101682.63;;;15.22;35.70
71857;BME280;63344;46.980;28.882;2023-03-01T09:36:23;101710.91;;;15.05;34.91
71857;BME280;63344;46.980;28.882;2023-03-01T09:38:52;101695.31;;;15.17;35.20
71857;BME280;63344;46.980;28.882;2023-03-01T09:46:45;101691.28;;;15.69;32.28
71857;BME280;63344;46.980;28.882;2023-03-01T09:49:31;101693.53;;;15.16;33.64
71857;BME280;63344;46.980;28.882;2023-03-01T09:52:33;101681.13;;;15.57;33.17
71857;BME280;63344;46.980;28.882;2023-03-01T09:54:58;101673.25;;;16.16;31.84
71857;BME280;63344;46.980;28.882;2023-03-01T10:00:20;101650.66;;;16.59;31.07
71857;BME280;63344;46.980;28.882;2023-03-01T10:10:38;101649.59;;;15.64;32.60
71857;BME280;63344;46.980;28.882;2023-03-01T10:13:50;101670.16;;;16.44;31.20
71857;BME280;63344;46.980;28.882;2023-03-01T10:16:53;101654.13;;;16.61;31.52
71857;BME280;63344;46.980;28.882;2023-03-01T10:19:36;101646.69;;;16.87;30.61
71857;BME280;63344;46.980;28.882;2023-03-01T10:22:19;101649.88;;;16.38;30.31
71857;BME280;63344;46.980;28.882;2023-03-01T10:25:13;101644.97;;;15.04;32.09
71857;BME280;63344;46.980;28.882;2023-03-01T10:27:46;101646.66;;;13.90;33.59
71857;BME280;63344;46.980;28.882;2023-03-01T10:32:51;101650.56;;;13.55;34.64
71857;BME280;63344;46.980;28.882;2023-03-01T10:35:26;101649.97;;;13.72;35.24
71857;BME280;63344;46.980;28.882;2023-03-01T10:38:04;101637.13;;;14.07;34.88
71857;BME280;63344;46.980;28.882;2023-03-01T10:40:55;101643.09;;;13.65;35.21
71857;BME280;63344;46.980;28.882;2023-03-01T10:43:32;101635.56;;;12.69;36.55
71857;BME280;63344;46.980;28.882;2023-03-01T10:46:34;101635.72;;;12.35;37.83
71857;BME280;63344;46.980;28.882;2023-03-01T10:51:34;101613.28;;;13.77;35.79
71857;BME280;63344;46.980;28.882;2023-03-01T10:54:02;101637.31;;;13.77;35.44
71857;BME280;63344;46.980;28.882;2023-03-01T10:56:46;101631.16;;;12.68;36.29
71857;BME280;63344;46.980;28.882;2023-03-01T10:59:41;101618.09;;;13.67;35.83
71857;BME280;63344;46.980;28.882;2023-03-01T11:02:21;101613.19;;;14.04;35.48
71857;BME280;63344;46.980;28.882;2023-03-01T11:07:48;101598.34;;;14.20;35.69
71857;BME280;63344;46.980;28.882;2023-03-01T11:10:27;101605.34;;;14.46;34.38
71857;BME280;63344;46.980;28.882;2023-03-01T11:13:08;101591.97;;;14.24;35.25
71857;BME280;63344;46.980;28.882;2023-03-01T11:15:35;101595.31;;;13.57;35.69
71857;BME280;63344;46.980;28.882;2023-03-01T11:18:03;101588.22;;;13.81;35.55
71857;BME280;63344;46.980;28.882;2023-03-01T11:20:46;101603.28;;;12.50;36.58
71857;BME280;63344;46.980;28.882;2023-03-01T11:23:14;101585.56;;;12.48;37.94
71857;BME280;63344;46.980;28.882;2023-03-01T11:25:46;101564.41;;;13.75;35.99
71857;BME280;63344;46.980;28.882;2023-03-01T11:28:30;101583.97;;;14.46;35.00
71857;BME280;63344;46.980;28.882;2023-03-01T11:31:05;101580.09;;;14.31;34.79
71857;BME280;63344;46.980;28.882;2023-03-01T11:33:49;101572.31;;;14.71;34.45
71857;BME280;63344;46.980;28.882;2023-03-01T11:42:27;101571.59;;;15.30;32.34
71857;BME280;63344;46.980;28.882;2023-03-01T11:44:59;101552.41;;;13.87;34.49
71857;BME280;63344;46.980;28.882;2023-03-01T11:50:19;101558.78;;;12.81;36.84
71857;BME280;63344;46.980;28.882;2023-03-01T11:55:44;101570.31;;;11.95;38.47
71857;BME280;63344;46.980;28.882;2023-03-01T11:59:02;101560.19;;;10.38;40.82
71857;BME280;63344;46.980;28.882;2023-03-01T12:10:35;101543.38;;;12.34;38.05
71857;BME280;63344;46.980;28.882;2023-03-01T12:13:25;101539.31;;;12.79;37.71
71857;BME280;63344;46.980;28.882;2023-03-01T12:26:57;101539.84;;;12.05;38.94
71857;BME280;63344;46.980;28.882;2023-03-01T12:29:34;101539.50;;;11.55;39.72
71857;BME280;63344;46.980;28.882;2023-03-01T12:46:33;101502.19;;;15.46;33.02
71857;BME280;63344;46.980;28.882;2023-03-01T12:49:12;101522.78;;;15.65;31.96
71857;BME280;63344;46.980;28.882;2023-03-01T12:51:56;101509.72;;;15.57;32.72
71857;BME280;63344;46.980;28.882;2023-03-01T12:54:31;101508.41;;;15.47;31.97
71857;BME280;63344;46.980;28.882;2023-03-01T12:57:06;101502.44;;;13.90;33.40
71857;BME280;63344;46.980;28.882;2023-03-01T12:59:51;101532.91;;;12.28;35.81
71857;BME280;63344;46.980;28.882;2023-03-01T13:02:37;101522.16;;;11.71;37.66
71857;BME280;63344;46.980;28.882;2023-03-01T13:10:33;101511.63;;;11.37;39.40
71857;BME280;63344;46.980;28.882;2023-03-01T13:13:12;101515.63;;;11.52;39.68
71857;BME280;63344;46.980;28.882;2023-03-01T13:15:40;101490.50;;;11.93;38.34
71857;BME280;63344;46.980;28.882;2023-03-01T13:26:09;101511.34;;;10.81;40.42
71857;BME280;63344;46.980;28.882;2023-03-01T13:33:59;101507.78;;;9.20;44.26
71857;BME280;63344;46.980;28.882;2023-03-01T13:44:25;101510.50;;;9.60;43.69
71857;BME280;63344;46.980;28.882;2023-03-01T13:46:57;101493.75;;;9.58;43.86
71857;BME280;63344;46.980;28.882;2023-03-01T13:49:36;101500.53;;;9.73;43.20
71857;BME280;63344;46.980;28.882;2023-03-01T13:52:40;101488.34;;;9.21;44.24
71857;BME280;63344;46.980;28.882;2023-03-01T13:55:36;101495.28;;;8.76;44.83
71857;BME280;63344;46.980;28.882;2023-03-01T13:58:19;101494.94;;;8.45;44.46
71857;BME280;63344;46.980;28.882;2023-03-01T14:01:18;101498.91;;;8.15;44.54
71857;BME280;63344;46.980;28.882;2023-03-01T14:03:45;101493.53;;;8.18;44.90
71857;BME280;63344;46.980;28.882;2023-03-01T14:06:16;101486.25;;;8.32;45.23
71857;BME280;63344;46.980;28.882;2023-03-01T14:08:48;101495.13;;;8.31;45.95
71857;BME280;63344;46.980;28.882;2023-03-01T14:19:34;101499.53;;;8.31;45.35
71857;BME280;63344;46.980;28.882;2023-03-01T14:22:26;101493.31;;;8.33;45.63
71857;BME280;63344;46.980;28.882;2023-03-01T14:25:05;101490.66;;;8.33;46.25
71857;BME280;63344;46.980;28.882;2023-03-01T14:27:36;101482.00;;;8.22;46.05
71857;BME280;63344;46.980;28.882;2023-03-01T14:30:10;101482.47;;;7.90;45.93
71857;BME280;63344;46.980;28.882;2023-03-01T14:32:39;101482.69;;;7.74;46.78
71857;BME280;63344;46.980;28.882;2023-03-01T14:35:22;101481.66;;;7.85;47.20
71857;BME280;63344;46.980;28.882;2023-03-01T14:37:50;101478.22;;;7.80;46.64
71857;BME280;63344;46.980;28.882;2023-03-01T14:42:58;101484.63;;;7.62;47.20
71857;BME280;63344;46.980;28.882;2023-03-01T14:45:28;101479.34;;;7.58;46.98
71857;BME280;63344;46.980;28.882;2023-03-01T14:48:04;101487.38;;;7.52;47.24
71857;BME280;63344;46.980;28.882;2023-03-01T14:50:48;101483.97;;;7.43;47.50
71857;BME280;63344;46.980;28.882;2023-03-01T14:53:23;101470.81;;;7.36;48.50
71857;BME280;63344;46.980;28.882;2023-03-01T14:55:56;101465.75;;;7.20;48.50
71857;BME280;63344;46.980;28.882;2023-03-01T14:58:25;101466.75;;;7.06;48.77
71857;BME280;63344;46.980;28.882;2023-03-01T15:00:58;101482.66;;;7.02;49.45
71857;BME280;63344;46.980;28.882;2023-03-01T15:03:38;101487.94;;;7.02;49.71
71857;BME280;63344;46.980;28.882;2023-03-01T15:06:08;101479.25;;;6.92;49.79
71857;BME280;63344;46.980;28.882;2023-03-01T15:08:37;101475.75;;;6.88;49.45
71857;BME280;63344;46.980;28.882;2023-03-01T15:13:51;101483.84;;;6.68;50.25
71857;BME280;63344;46.980;28.882;2023-03-01T15:16:30;101489.13;;;6.67;50.73